Time;durP1;ratioP1;P1;durP2;ratioP2;P2;SDS_P1;SDS_P2;PMS_P1;PMS_P2;Temp;Humidity;BMP_temperature;BMP_pressure;BME280_temperature;BME280_humidity;BME280_pressure;Samples;Min_cycle;Max_cycle;Signal;HPM_P1;HPM_P2
2022/09/17 00:02:07;;;;;;;5.80;1.08;;;;;;;;;;5095290;28;20044;-81
2022/09/17 00:04:34;;;;;;;7.43;1.30;;;;;;;;;;5096025;28;20134;-79
2022/09/17 00:07:00;;;;;;;6.63;1.20;;;;;;;;;;5100479;28;20040;-80
2022/09/17 00:09:27;;;;;;;5.28;1.00;;;;;;;;;;5094702;28;20048;-80
2022/09/17 00:11:53;;;;;;;8.13;1.30;;;;;;;;;;5095052;28;20515;-77
2022/09/17 00:14:20;;;;;;;4.80;0.90;;;;;;;;;;5096537;28;20054;-78
2022/09/17 00:16:48;;;;;;;10.13;1.15;;;;;;;;;;5095031;28;20059;-79
2022/09/17 00:19:20;;;;;;;10.73;1.13;;;;;;;;;;5091762;28;20130;-79
2022/09/17 00:21:46;;;;;;;8.18;1.25;;;;;;;;;;5092063;28;20062;-79
2022/09/17 00:24:13;;;;;;;7.57;1.38;;;;;;;;;;5092111;28;20048;-78
2022/09/17 00:26:40;;;;;;;8.35;1.20;;;;;;;;;;5099888;28;20048;-76
2022/09/17 00:29:06;;;;;;;6.70;1.05;;;;;;;;;;5104225;28;20048;-80
2022/09/17 00:31:33;;;;;;;7.32;1.00;;;;;;;;;;5100325;28;20042;-80
2022/09/17 00:34:01;;;;;;;8.85;1.00;;;;;;;;;;5104666;28;20097;-79
2022/09/17 00:36:27;;;;;;;7.75;1.42;;;;;;;;;;5104477;28;20051;-80
2022/09/17 00:38:57;;;;;;;6.20;0.80;;;;;;;;;;5104341;28;20075;-78
2022/09/17 00:41:25;;;;;;;7.40;1.33;;;;;;;;;;5103712;28;20062;-80
2022/09/17 00:43:53;;;;;;;8.35;1.33;;;;;;;;;;5105245;28;20051;-79
2022/09/17 00:46:29;;;;;;;4.07;1.05;;;;;;;;;;5106878;28;20083;-79
2022/09/17 00:48:57;;;;;;;9.40;1.55;;;;;;;;;;5101540;28;20055;-79
2022/09/17 00:51:32;;;;;;;7.70;1.20;;;;;;;;;;5102457;28;20028;-79
2022/09/17 00:54:00;;;;;;;12.45;1.42;;;;;;;;;;5103771;28;20067;-79
2022/09/17 00:56:28;;;;;;;9.32;1.20;;;;;;;;;;5102543;28;20052;-79
2022/09/17 00:58:55;;;;;;;6.25;1.13;;;;;;;;;;5100705;28;20071;-80
2022/09/17 01:01:21;;;;;;;6.20;1.00;;;;;;;;;;5100136;28;20510;-80
2022/09/17 01:03:48;;;;;;;9.82;1.38;;;;;;;;;;5097048;28;20040;-80
2022/09/17 01:06:24;;;;;;;3.05;0.88;;;;;;;;;;5101979;28;20503;-79
2022/09/17 01:08:51;;;;;;;6.88;0.90;;;;;;;;;;5098453;28;20105;-79
2022/09/17 01:11:18;;;;;;;7.18;1.10;;;;;;;;;;5096546;28;20055;-79
2022/09/17 01:14:16;;;;;;;11.85;1.17;;;;;;;;;;5095702;28;20066;-81
2022/09/17 01:16:45;;;;;;;9.63;1.10;;;;;;;;;;5097104;28;20082;-80
2022/09/17 01:19:15;;;;;;;9.10;1.00;;;;;;;;;;5097761;28;20054;-81
2022/09/17 01:21:48;;;;;;;6.65;1.08;;;;;;;;;;5098476;28;20052;-77
2022/09/17 01:24:17;;;;;;;7.47;1.15;;;;;;;;;;5079329;28;20083;-79
2022/09/17 01:26:53;;;;;;;4.97;0.90;;;;;;;;;;5097553;28;20058;-80
2022/09/17 01:29:38;;;;;;;6.57;1.13;;;;;;;;;;5076742;28;20476;-79
2022/09/17 01:32:15;;;;;;;6.95;1.20;;;;;;;;;;5097852;28;20074;-79
2022/09/17 01:34:44;;;;;;;4.22;1.00;;;;;;;;;;5095018;28;20111;-80
2022/09/17 01:37:31;;;;;;;12.18;1.20;;;;;;;;;;5077823;28;20131;-80
2022/09/17 01:40:08;;;;;;;6.03;0.90;;;;;;;;;;5095488;28;20140;-79
2022/09/17 01:42:40;;;;;;;3.38;1.02;;;;;;;;;;5095654;28;20130;-80
2022/09/17 01:45:11;;;;;;;2.92;0.77;;;;;;;;;;5111634;28;20092;-80
2022/09/17 01:47:49;;;;;;;5.50;1.08;;;;;;;;;;5115336;28;20103;-79
2022/09/17 01:50:23;;;;;;;7.28;1.63;;;;;;;;;;5088118;28;20059;-79
2022/09/17 01:52:51;;;;;;;6.22;1.02;;;;;;;;;;5098055;28;20147;-80
2022/09/17 01:55:18;;;;;;;6.65;1.10;;;;;;;;;;5097182;28;20048;-79
2022/09/17 01:58:03;;;;;;;5.13;1.20;;;;;;;;;;5079299;28;20066;-78
2022/09/17 02:00:29;;;;;;;4.60;0.88;;;;;;;;;;5097371;28;20056;-81
2022/09/17 02:03:00;;;;;;;6.60;1.00;;;;;;;;;;5103338;28;20047;-80
2022/09/17 02:05:29;;;;;;;7.65;1.33;;;;;;;;;;5105144;28;20044;-80
2022/09/17 02:08:02;;;;;;;5.68;1.10;;;;;;;;;;5104531;28;20135;-80
2022/09/17 02:10:33;;;;;;;6.97;1.08;;;;;;;;;;5104609;28;20068;-80
2022/09/17 02:13:03;;;;;;;8.07;1.17;;;;;;;;;;5105327;28;20074;-79
2022/09/17 02:15:36;;;;;;;5.40;1.42;;;;;;;;;;5089303;28;20052;-80
2022/09/17 02:18:25;;;;;;;12.93;1.30;;;;;;;;;;5104313;28;20048;-80
2022/09/17 02:21:07;;;;;;;8.25;1.20;;;;;;;;;;5091834;28;20135;-79
2022/09/17 02:23:35;;;;;;;8.15;1.10;;;;;;;;;;5103882;28;20423;-79
2022/09/17 02:26:05;;;;;;;7.30;1.27;;;;;;;;;;5104108;28;20063;-80
2022/09/17 02:28:38;;;;;;;6.10;1.10;;;;;;;;;;5100184;28;20629;-80
2022/09/17 02:31:04;;;;;;;5.72;1.00;;;;;;;;;;5100524;28;20046;-80
2022/09/17 02:33:32;;;;;;;8.30;1.23;;;;;;;;;;5099940;28;20074;-79
2022/09/17 02:35:58;;;;;;;13.65;2.08;;;;;;;;;;5099674;28;20052;-79
2022/09/17 02:38:25;;;;;;;9.07;1.25;;;;;;;;;;5095623;28;20139;-79
2022/09/17 02:40:58;;;;;;;10.40;1.40;;;;;;;;;;5096536;28;20048;-79
2022/09/17 02:43:34;;;;;;;6.32;1.10;;;;;;;;;;5095231;28;20044;-77
2022/09/17 02:46:07;;;;;;;13.27;1.65;;;;;;;;;;5098626;28;20044;-79
2022/09/17 02:48:36;;;;;;;6.38;1.55;;;;;;;;;;5096208;28;20120;-80
2022/09/17 02:51:02;;;;;;;8.00;1.50;;;;;;;;;;5086248;28;20126;-80
2022/09/17 02:53:29;;;;;;;8.95;1.55;;;;;;;;;;5077568;28;20548;-79
2022/09/17 02:56:09;;;;;;;11.27;1.70;;;;;;;;;;5077532;28;20155;-79
2022/09/17 02:58:39;;;;;;;9.48;2.00;;;;;;;;;;5073897;28;20056;-80
2022/09/17 03:01:11;;;;;;;10.65;1.92;;;;;;;;;;5077564;28;20653;-79
2022/09/17 03:03:40;;;;;;;11.95;2.25;;;;;;;;;;5077517;28;20048;-78
2022/09/17 03:06:06;;;;;;;8.60;2.10;;;;;;;;;;5095731;28;20048;-79
2022/09/17 03:08:37;;;;;;;8.80;2.20;;;;;;;;;;5093684;28;20055;-79
2022/09/17 03:11:05;;;;;;;5.95;1.92;;;;;;;;;;5094503;28;20059;-79
2022/09/17 03:13:31;;;;;;;10.73;2.47;;;;;;;;;;5091516;28;20063;-79
2022/09/17 03:15:57;;;;;;;7.32;2.45;;;;;;;;;;5094887;28;20055;-78
2022/09/17 03:18:24;;;;;;;11.13;3.05;;;;;;;;;;5098338;28;20048;-79
2022/09/17 03:20:50;;;;;;;8.90;2.88;;;;;;;;;;5095853;28;20067;-78
2022/09/17 03:23:16;;;;;;;10.60;2.67;;;;;;;;;;5095341;28;20108;-78
2022/09/17 03:25:44;;;;;;;19.08;3.53;;;;;;;;;;5096842;28;20044;-79
2022/09/17 03:28:10;;;;;;;8.75;3.33;;;;;;;;;;5092930;28;20071;-79
2022/09/17 03:30:37;;;;;;;10.95;3.05;;;;;;;;;;5092751;28;20040;-79
2022/09/17 03:33:03;;;;;;;9.88;3.65;;;;;;;;;;5091765;28;20492;-81
2022/09/17 03:35:29;;;;;;;8.98;3.90;;;;;;;;;;5094045;28;20048;-80
2022/09/17 03:37:56;;;;;;;13.80;4.55;;;;;;;;;;5094324;28;20052;-78
2022/09/17 03:40:22;;;;;;;9.20;4.18;;;;;;;;;;5093092;28;20051;-77
2022/09/17 03:42:49;;;;;;;10.88;4.50;;;;;;;;;;5090040;28;20573;-80
2022/09/17 03:45:15;;;;;;;10.65;4.63;;;;;;;;;;5093270;28;20048;-79
2022/09/17 03:47:42;;;;;;;19.10;5.13;;;;;;;;;;5093202;28;20060;-78
2022/09/17 03:50:08;;;;;;;15.70;5.55;;;;;;;;;;5093864;28;20044;-79
2022/09/17 03:52:35;;;;;;;14.25;6.28;;;;;;;;;;5095091;28;20048;-78
2022/09/17 03:55:02;;;;;;;16.50;6.90;;;;;;;;;;5093094;28;20049;-78
2022/09/17 03:57:28;;;;;;;17.48;7.93;;;;;;;;;;5091397;28;20060;-78
2022/09/17 03:59:54;;;;;;;16.23;7.57;;;;;;;;;;5092570;28;20261;-79
2022/09/17 04:02:21;;;;;;;15.63;8.07;;;;;;;;;;5093696;28;20052;-78
2022/09/17 04:04:47;;;;;;;12.57;7.68;;;;;;;;;;5094146;28;20113;-81
2022/09/17 04:07:14;;;;;;;16.20;8.02;;;;;;;;;;5093714;28;20048;-80
2022/09/17 04:09:40;;;;;;;13.80;7.30;;;;;;;;;;5075119;28;20045;-80
2022/09/17 04:12:06;;;;;;;16.02;7.90;;;;;;;;;;5095850;28;20132;-81
2022/09/17 04:14:33;;;;;;;13.57;7.88;;;;;;;;;;5094374;28;20048;-80
2022/09/17 04:16:59;;;;;;;19.65;7.90;;;;;;;;;;5095744;28;20048;-80
2022/09/17 04:19:26;;;;;;;10.45;7.07;;;;;;;;;;5095380;28;20048;-80
2022/09/17 04:21:52;;;;;;;15.70;7.47;;;;;;;;;;5077245;28;20067;-79
2022/09/17 04:24:19;;;;;;;14.02;7.03;;;;;;;;;;5094534;28;20068;-80
2022/09/17 04:26:45;;;;;;;15.35;7.25;;;;;;;;;;5094806;28;20044;-80
2022/09/17 04:29:11;;;;;;;11.45;6.88;;;;;;;;;;5095004;28;20176;-80
2022/09/17 04:31:38;;;;;;;12.15;6.35;;;;;;;;;;5102090;28;20044;-80
2022/09/17 04:34:04;;;;;;;12.75;6.53;;;;;;;;;;5098440;28;20131;-80
2022/09/17 04:36:31;;;;;;;10.23;5.78;;;;;;;;;;5094657;28;20511;-80
2022/09/17 04:38:57;;;;;;;14.02;5.90;;;;;;;;;;5078064;28;20048;-79
2022/09/17 04:41:23;;;;;;;8.50;5.30;;;;;;;;;;5098998;28;20142;-80
2022/09/17 04:43:50;;;;;;;12.15;5.20;;;;;;;;;;5095414;28;20056;-78
2022/09/17 04:46:16;;;;;;;12.07;5.18;;;;;;;;;;5092814;28;20048;-80
2022/09/17 04:48:43;;;;;;;8.90;4.97;;;;;;;;;;5092362;28;20048;-77
2022/09/17 04:51:09;;;;;;;12.82;5.32;;;;;;;;;;5092564;28;20062;-79
2022/09/17 04:53:37;;;;;;;5.80;4.47;;;;;;;;;;5091496;28;20105;-78
2022/09/17 04:56:03;;;;;;;7.50;4.93;;;;;;;;;;5091616;28;20048;-80
2022/09/17 04:58:31;;;;;;;4.40;3.50;;;;;;;;;;5091000;28;20070;-80
2022/09/17 05:00:57;;;;;;;6.75;4.13;;;;;;;;;;5076478;28;20058;-79
2022/09/17 05:03:24;;;;;;;5.68;3.70;;;;;;;;;;5095418;28;20048;-80
2022/09/17 05:05:50;;;;;;;6.30;3.45;;;;;;;;;;5110236;28;20042;-80
2022/09/17 05:08:17;;;;;;;7.00;3.72;;;;;;;;;;5114167;28;20112;-78
2022/09/17 05:10:43;;;;;;;5.25;3.55;;;;;;;;;;5107320;28;20209;-79
2022/09/17 05:13:10;;;;;;;4.72;3.30;;;;;;;;;;5097634;28;20051;-79
2022/09/17 05:15:36;;;;;;;6.78;3.45;;;;;;;;;;5095032;28;20044;-78
2022/09/17 05:18:02;;;;;;;5.15;3.25;;;;;;;;;;5095314;28;20554;-79
2022/09/17 05:20:29;;;;;;;3.83;2.67;;;;;;;;;;5095499;28;20131;-80
2022/09/17 05:22:56;;;;;;;3.58;2.38;;;;;;;;;;5092488;28;20044;-79
2022/09/17 05:25:25;;;;;;;3.15;2.25;;;;;;;;;;5094982;28;20493;-80
2022/09/17 05:27:52;;;;;;;5.10;2.30;;;;;;;;;;5075115;28;20057;-80
2022/09/17 05:30:19;;;;;;;4.40;2.72;;;;;;;;;;5092597;28;20048;-80
2022/09/17 05:32:46;;;;;;;5.28;2.25;;;;;;;;;;5092072;28;20044;-79
2022/09/17 05:35:12;;;;;;;3.05;2.20;;;;;;;;;;5074213;28;20048;-80
2022/09/17 05:37:39;;;;;;;4.40;3.17;;;;;;;;;;5073533;28;20044;-79
2022/09/17 05:40:06;;;;;;;3.72;2.38;;;;;;;;;;5091710;28;20082;-80
2022/09/17 05:42:33;;;;;;;7.75;2.60;;;;;;;;;;5074708;28;20056;-81
2022/09/17 05:45:00;;;;;;;3.40;2.20;;;;;;;;;;5087402;28;20151;-80
2022/09/17 05:47:26;;;;;;;2.85;1.80;;;;;;;;;;5069842;28;20078;-81
2022/09/17 05:49:55;;;;;;;3.25;1.88;;;;;;;;;;5089234;28;20135;-81
2022/09/17 05:52:25;;;;;;;3.35;1.40;;;;;;;;;;5090491;28;20549;-81
2022/09/17 05:54:51;;;;;;;1.33;1.13;;;;;;;;;;5090462;28;20082;-79
2022/09/17 05:57:19;;;;;;;2.08;1.00;;;;;;;;;;5090438;28;20048;-82
2022/09/17 05:59:45;;;;;;;1.33;0.90;;;;;;;;;;5090450;28;20071;-80
2022/09/17 06:02:12;;;;;;;2.72;1.00;;;;;;;;;;5076771;28;20044;-80
2022/09/17 06:04:39;;;;;;;2.65;1.23;;;;;;;;;;5087575;28;20530;-81
2022/09/17 06:07:08;;;;;;;1.67;1.20;;;;;;;;;;5089685;28;20139;-80
2022/09/17 06:09:39;;;;;;;1.90;1.40;;;;;;;;;;5084331;28;20044;-80
2022/09/17 06:12:06;;;;;;;4.40;1.80;;;;;;;;;;5085659;28;20051;-81
2022/09/17 06:14:33;;;;;;;3.40;1.80;;;;;;;;;;5071223;28;20059;-79
2022/09/17 06:16:59;;;;;;;7.22;2.60;;;;;;;;;;5086158;28;20059;-80
2022/09/17 06:19:26;;;;;;;7.80;2.80;;;;;;;;;;5088040;28;20292;-80
2022/09/17 06:21:52;;;;;;;9.68;2.38;;;;;;;;;;5088135;28;20158;-79
2022/09/17 06:24:19;;;;;;;6.57;2.38;;;;;;;;;;5068960;28;20540;-80
2022/09/17 06:26:45;;;;;;;5.65;2.25;;;;;;;;;;5087050;28;20522;-80
2022/09/17 06:29:13;;;;;;;9.05;2.92;;;;;;;;;;5084108;28;20058;-80
2022/09/17 06:31:43;;;;;;;5.70;2.60;;;;;;;;;;5086019;28;20102;-82
2022/09/17 06:34:10;;;;;;;5.50;2.60;;;;;;;;;;5084746;28;20082;-79
2022/09/17 06:36:36;;;;;;;9.75;3.00;;;;;;;;;;5085144;28;20512;-79
2022/09/17 06:39:03;;;;;;;7.63;3.17;;;;;;;;;;5086065;28;20062;-80
2022/09/17 06:41:29;;;;;;;7.93;3.38;;;;;;;;;;5085749;28;20062;-80
2022/09/17 06:43:56;;;;;;;8.43;3.13;;;;;;;;;;5085847;28;20048;-79
2022/09/17 06:46:22;;;;;;;10.48;3.50;;;;;;;;;;5085556;28;20056;-80
2022/09/17 06:48:49;;;;;;;6.78;3.03;;;;;;;;;;5087846;28;20523;-81
2022/09/17 06:51:15;;;;;;;9.68;4.10;;;;;;;;;;5091027;28;20063;-79
2022/09/17 06:53:42;;;;;;;9.57;3.53;;;;;;;;;;5089195;28;20048;-79
2022/09/17 06:56:08;;;;;;;11.50;3.65;;;;;;;;;;5089788;28;20048;-79
2022/09/17 06:58:45;;;;;;;9.73;3.90;;;;;;;;;;5083615;28;20364;-80
2022/09/17 07:01:12;;;;;;;17.33;3.70;;;;;;;;;;5091033;28;20048;-79
2022/09/17 07:03:42;;;;;;;13.38;4.00;;;;;;;;;;5090926;28;20044;-80
2022/09/17 07:06:09;;;;;;;9.68;3.92;;;;;;;;;;5083999;28;20048;-80
2022/09/17 07:08:36;;;;;;;18.20;3.97;;;;;;;;;;5073788;28;20147;-81
2022/09/17 07:11:03;;;;;;;17.15;4.43;;;;;;;;;;5091352;28;20052;-80
2022/09/17 07:13:29;;;;;;;12.32;4.03;;;;;;;;;;5090502;28;20070;-79
2022/09/17 07:15:59;;;;;;;10.13;3.47;;;;;;;;;;5090206;28;20055;-81
2022/09/17 07:18:26;;;;;;;15.63;4.00;;;;;;;;;;5079845;28;20048;-80
2022/09/17 07:20:57;;;;;;;8.88;3.20;;;;;;;;;;5095518;28;20047;-80
2022/09/17 07:23:25;;;;;;;10.25;3.30;;;;;;;;;;5096270;28;20141;-82
2022/09/17 07:25:55;;;;;;;12.48;3.67;;;;;;;;;;5101191;28;20307;-80
2022/09/17 07:28:22;;;;;;;15.52;4.07;;;;;;;;;;5097536;28;20275;-81
2022/09/17 07:30:49;;;;;;;9.85;3.35;;;;;;;;;;5073204;28;20108;-81
2022/09/17 07:33:17;;;;;;;14.15;3.10;;;;;;;;;;5096868;28;20056;-82
2022/09/17 07:36:00;;;;;;;13.95;2.75;;;;;;;;;;5091960;28;20051;-82
2022/09/17 07:38:27;;;;;;;11.27;2.80;;;;;;;;;;5090361;28;20062;-81
2022/09/17 07:40:58;;;;;;;15.20;2.63;;;;;;;;;;5072987;28;20060;-81
2022/09/17 07:43:25;;;;;;;17.80;2.20;;;;;;;;;;5072108;28;20659;-80
2022/09/17 07:45:52;;;;;;;15.27;2.50;;;;;;;;;;5091217;28;20047;-80
2022/09/17 07:48:20;;;;;;;10.32;2.47;;;;;;;;;;5093467;28;20507;-84
2022/09/17 07:50:46;;;;;;;12.45;2.15;;;;;;;;;;5094710;28;20048;-85
2022/09/17 07:53:12;;;;;;;11.25;2.10;;;;;;;;;;5095169;28;20232;-82
2022/09/17 07:55:39;;;;;;;11.18;2.20;;;;;;;;;;5079796;28;20072;-84
2022/09/17 07:58:05;;;;;;;10.10;2.20;;;;;;;;;;5094596;28;20480;-82
2022/09/17 08:00:32;;;;;;;9.02;2.30;;;;;;;;;;5095738;28;20555;-80
2022/09/17 08:02:59;;;;;;;12.00;2.17;;;;;;;;;;5096540;28;20055;-82
2022/09/17 08:05:32;;;;;;;11.73;2.35;;;;;;;;;;5095530;28;20139;-79
2022/09/17 08:07:59;;;;;;;10.32;1.90;;;;;;;;;;5086718;28;20049;-82
2022/09/17 08:10:26;;;;;;;16.95;2.20;;;;;;;;;;5095392;28;20055;-81
2022/09/17 08:12:56;;;;;;;10.60;2.22;;;;;;;;;;5075271;28;20093;-82
2022/09/17 08:15:24;;;;;;;16.45;2.13;;;;;;;;;;5077801;28;20500;-83
2022/09/17 08:17:50;;;;;;;12.82;2.60;;;;;;;;;;5094565;28;20140;-82
2022/09/17 08:20:18;;;;;;;9.38;2.30;;;;;;;;;;5093089;28;20051;-81
2022/09/17 08:22:44;;;;;;;11.93;2.33;;;;;;;;;;5096304;28;20059;-83
2022/09/17 08:25:15;;;;;;;8.43;1.88;;;;;;;;;;5081444;28;20082;-84
2022/09/17 08:27:42;;;;;;;12.50;2.35;;;;;;;;;;5094288;28;20044;-85
2022/09/17 08:30:08;;;;;;;8.30;1.70;;;;;;;;;;5112269;28;20087;-84
2022/09/17 08:32:34;;;;;;;10.23;1.65;;;;;;;;;;5084161;28;20044;-81
2022/09/17 08:35:02;;;;;;;12.98;2.20;;;;;;;;;;5096785;28;20055;-82
2022/09/17 08:37:31;;;;;;;8.95;1.65;;;;;;;;;;5079051;28;20042;-82
2022/09/17 08:39:58;;;;;;;11.63;2.25;;;;;;;;;;5097226;28;20435;-81
2022/09/17 08:42:24;;;;;;;14.25;1.65;;;;;;;;;;5098806;28;20043;-83
2022/09/17 08:44:52;;;;;;;14.45;2.13;;;;;;;;;;5100752;28;20048;-83
2022/09/17 08:47:35;;;;;;;9.60;1.27;;;;;;;;;;5096600;28;20046;-81
2022/09/17 08:50:03;;;;;;;11.93;2.15;;;;;;;;;;5096083;28;20062;-84
2022/09/17 08:52:38;;;;;;;9.25;1.77;;;;;;;;;;5085693;28;20058;-84
2022/09/17 08:55:05;;;;;;;9.00;1.83;;;;;;;;;;5103303;28;20051;-82
2022/09/17 08:57:37;;;;;;;8.95;1.85;;;;;;;;;;5095334;28;20048;-83
2022/09/17 09:00:13;;;;;;;13.60;2.10;;;;;;;;;;5094446;28;20117;-81
2022/09/17 09:02:42;;;;;;;15.48;1.95;;;;;;;;;;5092417;28;20059;-82
2022/09/17 09:05:29;;;;;;;10.90;1.95;;;;;;;;;;5091475;28;20130;-81
2022/09/17 09:07:58;;;;;;;13.68;2.28;;;;;;;;;;5093360;28;20086;-81
2022/09/17 09:10:27;;;;;;;13.60;2.05;;;;;;;;;;5093084;28;20135;-80
2022/09/17 09:12:54;;;;;;;12.07;2.00;;;;;;;;;;5094644;28;20051;-82
2022/09/17 09:15:20;;;;;;;10.25;1.60;;;;;;;;;;5096430;28;20048;-81
2022/09/17 09:17:48;;;;;;;10.82;2.00;;;;;;;;;;5091686;28;20143;-81
2022/09/17 09:20:16;;;;;;;11.98;1.63;;;;;;;;;;5088614;28;20093;-82
2022/09/17 09:22:48;;;;;;;11.13;1.65;;;;;;;;;;5091447;28;20063;-81
2022/09/17 09:25:17;;;;;;;10.52;1.73;;;;;;;;;;5092380;28;20054;-81
2022/09/17 09:27:51;;;;;;;9.55;1.52;;;;;;;;;;5091546;28;20040;-81
2022/09/17 09:30:22;;;;;;;14.20;1.67;;;;;;;;;;5092513;28;20054;-82
2022/09/17 09:32:57;;;;;;;9.10;1.73;;;;;;;;;;5093076;28;20075;-84
2022/09/17 09:35:24;;;;;;;9.95;1.70;;;;;;;;;;5094418;28;20054;-82
2022/09/17 09:37:56;;;;;;;9.13;1.98;;;;;;;;;;5093740;28;20072;-82
2022/09/17 09:40:35;;;;;;;8.95;1.58;;;;;;;;;;5092759;28;20048;-82
2022/09/17 09:43:07;;;;;;;11.18;1.80;;;;;;;;;;5093735;28;20400;-82
2022/09/17 09:45:53;;;;;;;10.07;1.75;;;;;;;;;;5095661;28;20048;-81
2022/09/17 09:48:29;;;;;;;7.95;1.48;;;;;;;;;;5097448;28;20130;-85
2022/09/17 09:50:56;;;;;;;10.70;1.88;;;;;;;;;;5100330;28;20043;-83
2022/09/17 09:53:43;;;;;;;7.72;1.60;;;;;;;;;;5100905;28;20534;-80
2022/09/17 09:56:32;;;;;;;10.23;1.70;;;;;;;;;;5096772;28;20048;-84
2022/09/17 09:58:58;;;;;;;10.82;1.63;;;;;;;;;;5095617;28;20067;-82
2022/09/17 10:01:26;;;;;;;10.20;1.63;;;;;;;;;;5098101;28;20060;-82
2022/09/17 10:03:54;;;;;;;11.95;1.67;;;;;;;;;;5098618;28;20251;-81
2022/09/17 10:06:21;;;;;;;14.30;2.20;;;;;;;;;;5098553;28;20087;-81
2022/09/17 10:08:56;;;;;;;11.27;1.73;;;;;;;;;;5101060;28;20495;-82
2022/09/17 10:11:24;;;;;;;12.88;1.80;;;;;;;;;;5080608;28;20052;-85
2022/09/17 10:13:50;;;;;;;13.63;1.73;;;;;;;;;;5080207;28;20119;-82
2022/09/17 10:16:18;;;;;;;13.88;1.95;;;;;;;;;;5099893;28;20051;-82
2022/09/17 10:18:46;;;;;;;14.27;1.70;;;;;;;;;;5098227;28;20052;-83
2022/09/17 10:21:18;;;;;;;12.07;1.70;;;;;;;;;;5101635;28;20052;-82
2022/09/17 10:23:45;;;;;;;9.55;1.60;;;;;;;;;;5085500;28;20063;-83
2022/09/17 10:26:26;;;;;;;10.25;1.70;;;;;;;;;;5088553;28;20421;-83
2022/09/17 10:28:54;;;;;;;11.90;1.48;;;;;;;;;;5102177;28;20075;-84
2022/09/17 10:31:20;;;;;;;10.32;1.40;;;;;;;;;;5083906;28;20071;-83
2022/09/17 10:33:57;;;;;;;8.52;1.55;;;;;;;;;;5101993;28;20408;-83
2022/09/17 10:36:43;;;;;;;8.35;1.17;;;;;;;;;;5102277;28;20062;-84
2022/09/17 10:39:18;;;;;;;7.45;1.02;;;;;;;;;;5103034;28;20463;-83
2022/09/17 10:41:54;;;;;;;7.60;1.83;;;;;;;;;;5102122;28;20051;-81
2022/09/17 10:44:21;;;;;;;;;;;;;;;;;;5103873;28;20075;-82
2022/09/17 10:46:47;;;;;;;8.57;1.40;;;;;;;;;;5102582;28;19930;-84
2022/09/17 10:49:22;;;;;;;10.63;1.42;;;;;;;;;;5086320;28;20079;-83
2022/09/17 10:51:48;;;;;;;7.82;1.38;;;;;;;;;;5088617;28;20075;-82
2022/09/17 10:54:39;;;;;;;9.95;1.58;;;;;;;;;;5102152;28;20048;-82
2022/09/17 10:57:06;;;;;;;7.38;1.58;;;;;;;;;;5065152;28;20111;-80
2022/09/17 10:59:35;;;;;;;9.63;1.27;;;;;;;;;;5098491;28;20066;-83
2022/09/17 11:02:02;;;;;;;8.65;1.67;;;;;;;;;;5102425;28;20052;-82
2022/09/17 11:04:33;;;;;;;9.52;1.70;;;;;;;;;;5102480;28;20044;-83
2022/09/17 11:07:33;;;;;;;8.27;1.50;;;;;;;;;;5104867;28;20354;-83
2022/09/17 11:10:05;;;;;;;7.88;1.50;;;;;;;;;;5069900;28;20067;-83
2022/09/17 11:12:50;;;;;;;5.47;1.30;;;;;;;;;;5104083;28;20058;-82
2022/09/17 11:15:23;;;;;;;7.32;1.40;;;;;;;;;;5103927;28;20060;-82
2022/09/17 11:18:01;;;;;;;8.68;1.10;;;;;;;;;;5102662;28;20132;-84
2022/09/17 11:20:36;;;;;;;8.50;1.50;;;;;;;;;;5101521;28;20048;-83
2022/09/17 11:23:26;;;;;;;7.33;1.50;;;;;;;;;;5103245;28;20227;-83
2022/09/17 11:25:57;;;;;;;8.45;1.83;;;;;;;;;;5096717;28;20128;-82
2022/09/17 11:28:32;;;;;;;9.38;1.42;;;;;;;;;;5102747;28;20139;-83
2022/09/17 11:31:17;;;;;;;7.72;1.48;;;;;;;;;;5103659;28;20131;-82
2022/09/17 11:34:09;;;;;;;7.07;1.30;;;;;;;;;;5102302;28;20199;-82
2022/09/17 11:36:49;;;;;;;10.95;1.52;;;;;;;;;;5072941;28;20058;-83
2022/09/17 11:39:42;;;;;;;10.80;1.83;;;;;;;;;;5104336;28;20111;-84
2022/09/17 11:42:11;;;;;;;8.95;1.55;;;;;;;;;;5081114;28;20075;-84
2022/09/17 11:44:57;;;;;;;9.35;1.63;;;;;;;;;;5105668;28;20048;-82
2022/09/17 11:47:28;;;;;;;9.65;1.50;;;;;;;;;;5103430;28;20066;-79
2022/09/17 11:49:57;;;;;;;5.65;1.10;;;;;;;;;;5109876;28;20060;-79
2022/09/17 11:52:37;;;;;;;12.43;1.63;;;;;;;;;;5100335;28;20070;-80
2022/09/17 11:55:21;;;;;;;6.18;1.20;;;;;;;;;;5094838;28;20078;-81
2022/09/17 11:57:55;;;;;;;11.70;1.80;;;;;;;;;;5093348;28;20052;-81
2022/09/17 12:00:24;;;;;;;12.55;2.53;;;;;;;;;;5093499;28;20047;-79
2022/09/17 12:02:56;;;;;;;8.20;1.40;;;;;;;;;;5094893;28;20062;-79
2022/09/17 12:05:34;;;;;;;8.05;1.50;;;;;;;;;;5097620;28;20066;-80
2022/09/17 12:08:07;;;;;;;10.00;1.45;;;;;;;;;;5091438;28;20040;-80
2022/09/17 12:10:40;;;;;;;12.05;1.98;;;;;;;;;;5082964;28;20055;-80
2022/09/17 12:13:25;;;;;;;10.68;1.70;;;;;;;;;;5090930;28;20143;-80
2022/09/17 12:15:59;;;;;;;8.15;1.58;;;;;;;;;;5093822;28;20054;-78
2022/09/17 12:18:28;;;;;;;9.02;1.58;;;;;;;;;;5090667;28;20048;-79
2022/09/17 12:20:59;;;;;;;10.32;1.77;;;;;;;;;;5092757;28;20048;-79
2022/09/17 12:23:37;;;;;;;8.68;1.60;;;;;;;;;;5092585;28;20459;-78
2022/09/17 12:26:12;;;;;;;13.68;2.20;;;;;;;;;;5092148;28;20135;-79
2022/09/17 12:28:52;;;;;;;13.70;1.70;;;;;;;;;;5089650;28;20063;-79
2022/09/17 12:31:38;;;;;;;8.68;1.80;;;;;;;;;;5094054;28;20495;-79
2022/09/17 12:34:26;;;;;;;10.90;1.60;;;;;;;;;;5082483;28;20093;-79
2022/09/17 12:36:52;;;;;;;14.52;2.65;;;;;;;;;;5094439;28;20044;-80
2022/09/17 12:39:24;;;;;;;8.77;1.75;;;;;;;;;;5075680;28;20496;-78
2022/09/17 12:42:00;;;;;;;13.30;1.88;;;;;;;;;;5086545;28;20078;-79
2022/09/17 12:44:30;;;;;;;15.30;1.80;;;;;;;;;;5093089;28;20076;-80
2022/09/17 12:46:56;;;;;;;8.80;1.58;;;;;;;;;;5094734;28;20063;-80
2022/09/17 12:49:41;;;;;;;8.63;1.50;;;;;;;;;;5092671;28;20082;-79
2022/09/17 12:52:10;;;;;;;12.05;2.00;;;;;;;;;;5093682;28;20050;-80
2022/09/17 12:54:43;;;;;;;13.90;1.83;;;;;;;;;;5074290;28;20134;-79
2022/09/17 12:57:16;;;;;;;14.95;2.05;;;;;;;;;;5092828;28;20048;-79
2022/09/17 12:59:57;;;;;;;11.18;1.95;;;;;;;;;;5074227;28;20057;-78
2022/09/17 13:02:27;;;;;;;12.43;1.80;;;;;;;;;;5075651;28;20329;-79
2022/09/17 13:05:23;;;;;;;6.50;1.67;;;;;;;;;;5093564;28;20519;-80
2022/09/17 13:08:08;;;;;;;8.38;1.75;;;;;;;;;;5019552;28;20134;-80
2022/09/17 13:10:34;;;;;;;9.07;1.65;;;;;;;;;;5076464;28;20044;-82
2022/09/17 13:13:00;;;;;;;11.18;1.70;;;;;;;;;;5100293;28;20048;-81
2022/09/17 13:15:30;;;;;;;8.80;1.50;;;;;;;;;;5099151;28;20055;-82
2022/09/17 13:17:56;;;;;;;7.88;1.38;;;;;;;;;;5081233;28;20048;-81
2022/09/17 13:20:53;;;;;;;6.53;1.20;;;;;;;;;;5099866;28;20048;-82
2022/09/17 13:23:34;;;;;;;7.70;1.30;;;;;;;;;;5072361;28;20103;-81
2022/09/17 13:26:04;;;;;;;9.38;1.45;;;;;;;;;;5065691;28;20043;-81
2022/09/17 13:28:37;;;;;;;9.32;1.15;;;;;;;;;;5072379;28;20051;-81
2022/09/17 13:31:13;;;;;;;5.57;1.30;;;;;;;;;;5096219;28;20107;-81
2022/09/17 13:33:51;;;;;;;10.98;1.13;;;;;;;;;;5085087;28;20048;-79
2022/09/17 13:36:37;;;;;;;7.07;1.00;;;;;;;;;;5095395;28;20330;-83
2022/09/17 13:39:05;;;;;;;6.70;1.20;;;;;;;;;;5096085;28;20060;-84
2022/09/17 13:41:38;;;;;;;8.10;1.73;;;;;;;;;;5098095;28;20062;-83
2022/09/17 13:44:05;;;;;;;6.82;1.40;;;;;;;;;;5085714;28;20063;-83
2022/09/17 13:46:33;;;;;;;7.00;1.35;;;;;;;;;;5097388;28;20143;-84
2022/09/17 13:49:01;;;;;;;9.05;1.38;;;;;;;;;;5092745;28;20383;-84
2022/09/17 13:51:30;;;;;;;9.02;1.50;;;;;;;;;;5096479;28;20040;-84
2022/09/17 13:53:58;;;;;;;12.95;1.67;;;;;;;;;;5098446;28;20433;-83
2022/09/17 13:56:48;;;;;;;6.85;1.33;;;;;;;;;;5090130;28;20279;-83
2022/09/17 13:59:19;;;;;;;10.35;1.50;;;;;;;;;;5073224;28;20048;-82
2022/09/17 14:01:54;;;;;;;5.78;1.38;;;;;;;;;;5086534;28;20358;-82
2022/09/17 14:04:39;;;;;;;10.13;1.38;;;;;;;;;;5084770;28;20075;-84
2022/09/17 14:07:22;;;;;;;6.45;1.35;;;;;;;;;;5072965;28;20228;-83
2022/09/17 14:09:51;;;;;;;5.32;1.27;;;;;;;;;;5090409;28;20078;-81
2022/09/17 14:12:37;;;;;;;8.80;1.27;;;;;;;;;;5088686;28;20076;-82
2022/09/17 14:15:24;;;;;;;4.05;1.00;;;;;;;;;;5084005;28;20520;-81
2022/09/17 14:17:51;;;;;;;6.97;1.52;;;;;;;;;;5075258;28;20422;-83
2022/09/17 14:20:20;;;;;;;8.85;1.25;;;;;;;;;;5091038;28;20156;-82
2022/09/17 14:22:56;;;;;;;7.25;1.02;;;;;;;;;;5087824;28;20058;-83
2022/09/17 14:25:39;;;;;;;5.63;1.00;;;;;;;;;;5077263;28;20059;-83
2022/09/17 14:28:27;;;;;;;5.85;1.13;;;;;;;;;;5085946;28;20048;-83
2022/09/17 14:30:53;;;;;;;10.10;1.55;;;;;;;;;;5090053;28;20048;-81
2022/09/17 14:33:26;;;;;;;9.45;1.48;;;;;;;;;;5082490;28;20045;-81
2022/09/17 14:36:00;;;;;;;6.45;1.33;;;;;;;;;;5075723;28;20102;-82
2022/09/17 14:38:43;;;;;;;5.82;0.98;;;;;;;;;;5071876;28;20052;-80
2022/09/17 14:41:09;;;;;;;6.88;1.08;;;;;;;;;;5090906;28;20051;-80
2022/09/17 14:43:50;;;;;;;8.30;1.25;;;;;;;;;;5089403;28;20048;-82
2022/09/17 14:46:26;;;;;;;4.90;0.98;;;;;;;;;;5088238;28;20566;-81
2022/09/17 14:48:52;;;;;;;;;;;;;;;;;;5088574;28;20203;-81
2022/09/17 14:51:19;;;;;;;;;;;;;;;;;;5090838;28;19923;-81
2022/09/17 14:53:45;;;;;;;;;;;;;;;;;;5075601;28;20038;-82
2022/09/17 14:56:13;;;;;;;5.15;1.20;;;;;;;;;;5093004;28;19998;-82
2022/09/17 14:58:42;;;;;;;5.75;1.20;;;;;;;;;;5089156;28;20047;-82
2022/09/17 15:01:22;;;;;;;5.28;1.17;;;;;;;;;;5097858;28;20054;-84